Wellington, New Zealand
Current Conditions -  °F | °C
As of 9:30 PM on Wednesday 22 Oct 2014 (Local Time) from NZWN Reporting Station
Clear Clear  
Wind Chill: 12°   Ceiling: Unl
Heat Index: 12°   Visibility: 6mi
Dew Point:   Wind: 5mph
Humidity: 77%   Direction: 20°NNE
Pressure: 30.09"   Gusts: NA
Location:  41.29°S, 174.78°E
Report Text: NZWN 220930Z AUTO 02004KT 9999 NCD 12/08 Q1019 NOSIG
Loading
Personal Weather Stations






























Interactive Weather Map
Tropical Storm Tracking
New forecast layout! Learn more

10-Day Weather Forecast

Advertisements
Track Severe Weather on mobile